Time;durP1;ratioP1;P1;durP2;ratioP2;P2;SDS_P1;SDS_P2;PMS_P1;PMS_P2;Temp;Humidity;BMP_temperature;BMP_pressure;BME280_temperature;BME280_humidity;BME280_pressure;Samples;Min_cycle;Max_cycle;Signal;HPM_P1;HPM_P2
2022/08/25 00:00:41;;;;;;;93.97;53.05;;;21.60;99.90;;;;;;4805990;29;20134;-70
2022/08/25 00:03:07;;;;;;;90.80;53.97;;;22.00;99.90;;;;;;4805760;29;20046;-69
2022/08/25 00:05:33;;;;;;;88.80;53.47;;;20.10;99.90;;;;;;4805922;29;20046;-70
2022/08/25 00:07:59;;;;;;;79.20;50.10;;;22.00;99.90;;;;;;4805911;29;20069;-69
2022/08/25 00:10:26;;;;;;;85.47;51.20;;;;;;;;;;4805703;29;20050;-70
2022/08/25 00:12:52;;;;;;;83.43;52.92;;;;;;;;;;4805513;29;20047;-69
2022/08/25 00:15:17;;;;;;;79.03;49.40;;;21.00;99.90;;;;;;4805504;29;20074;-70
2022/08/25 00:17:44;;;;;;;85.28;48.38;;;;;;;;;;4805480;29;20078;-70
2022/08/25 00:20:10;;;;;;;82.32;50.08;;;20.20;99.90;;;;;;4805551;29;20050;-70
2022/08/25 00:22:36;;;;;;;86.50;50.83;;;;;;;;;;4805441;29;20077;-70
2022/08/25 00:25:01;;;;;;;81.20;50.03;;;19.90;99.90;;;;;;4805357;29;20046;-69
2022/08/25 00:27:28;;;;;;;76.57;48.72;;;;;;;;;;4790296;29;20130;-70
2022/08/25 00:29:53;;;;;;;81.82;49.17;;;21.70;99.90;;;;;;4805193;29;20046;-70
2022/08/25 00:32:19;;;;;;;76.75;49.42;;;21.00;99.90;;;;;;4805330;29;20072;-70
2022/08/25 00:34:45;;;;;;;78.32;48.90;;;21.40;99.90;;;;;;4790176;29;20043;-70
2022/08/25 00:37:11;;;;;;;70.22;47.28;;;;;;;;;;4805246;29;20050;-70
2022/08/25 00:39:37;;;;;;;75.22;47.35;;;21.00;99.90;;;;;;4805313;29;20050;-70
2022/08/25 00:42:04;;;;;;;76.47;47.05;;;20.90;99.90;;;;;;4805174;29;20515;-70
2022/08/25 00:44:31;;;;;;;71.57;45.53;;;20.10;99.90;;;;;;4805193;29;20075;-70
2022/08/25 00:46:59;;;;;;;77.10;44.88;;;20.70;99.90;;;;;;4790171;29;20058;-70
2022/08/25 00:49:46;;;;;;;72.63;44.28;;;21.40;99.90;;;;;;4805280;29;20089;-70
2022/08/25 00:52:24;;;;;;;72.38;45.20;;;20.30;99.90;;;;;;4805435;29;20137;-70
2022/08/25 00:55:00;;;;;;;62.88;42.78;;;20.90;99.90;;;;;;4804751;29;20485;-70
2022/08/25 00:57:31;;;;;;;68.07;41.63;;;20.00;99.90;;;;;;4804919;29;20489;-70
2022/08/25 00:59:58;;;;;;;62.60;40.85;;;21.30;99.90;;;;;;4804760;29;20070;-70
2022/08/25 01:02:24;;;;;;;61.78;39.17;;;;;;;;;;4790026;29;20480;-70
2022/08/25 01:04:50;;;;;;;61.20;39.38;;;;;;;;;;4804829;29;20088;-70
2022/08/25 01:07:19;;;;;;;58.42;37.33;;;20.70;99.90;;;;;;4804904;29;20050;-70
2022/08/25 01:09:46;;;;;;;58.42;34.55;;;22.00;99.90;;;;;;4804709;29;20053;-70
2022/08/25 01:12:13;;;;;;;55.35;34.63;;;21.30;99.90;;;;;;4805076;29;20069;-70
2022/08/25 01:14:39;;;;;;;53.15;33.30;;;19.80;99.90;;;;;;4804715;29;20054;-70
2022/08/25 01:17:05;;;;;;;52.22;33.15;;;;;;;;;;4804729;29;20043;-69
2022/08/25 01:19:32;;;;;;;52.42;32.92;;;21.00;99.90;;;;;;4806137;29;20046;-70
2022/08/25 01:21:58;;;;;;;55.35;33.13;;;20.80;99.90;;;;;;4793582;29;20496;-70
2022/08/25 01:24:45;;;;;;;51.60;33.97;;;20.00;99.90;;;;;;4808504;29;20408;-69
2022/08/25 01:27:11;;;;;;;49.40;31.63;;;;;;;;;;4808484;29;20488;-70
2022/08/25 01:29:38;;;;;;;48.80;32.42;;;20.40;99.90;;;;;;4808650;29;20377;-69
2022/08/25 01:32:07;;;;;;;52.08;32.22;;;20.00;99.90;;;;;;4793498;29;20467;-69
2022/08/25 01:34:35;;;;;;;50.45;31.88;;;21.90;99.90;;;;;;4793463;29;20050;-70
2022/08/25 01:37:02;;;;;;;63.05;34.00;;;21.60;99.90;;;;;;4808193;29;20453;-70
2022/08/25 01:39:29;;;;;;;53.03;32.75;;;20.20;99.90;;;;;;4808186;29;20050;-69
2022/08/25 01:42:10;;;;;;;54.05;30.90;;;21.60;99.90;;;;;;4808145;29;20116;-69
2022/08/25 01:44:38;;;;;;;46.03;30.48;;;21.20;99.90;;;;;;4808320;29;20496;-70
2022/08/25 01:47:06;;;;;;;52.55;31.48;;;21.70;99.90;;;;;;4793338;29;20392;-70
2022/08/25 01:49:32;;;;;;;46.97;30.50;;;21.30;99.90;;;;;;4807880;29;20059;-70
2022/08/25 01:52:24;;;;;;;44.88;31.63;;;21.60;99.90;;;;;;4808295;29;20047;-69
2022/08/25 01:54:50;;;;;;;46.53;30.45;;;20.20;99.90;;;;;;4807945;29;20527;-70
2022/08/25 01:57:16;;;;;;;49.83;29.88;;;21.10;99.90;;;;;;4808081;29;20055;-70
2022/08/25 01:59:42;;;;;;;42.63;30.17;;;21.70;99.90;;;;;;4807682;29;20063;-70
2022/08/25 02:02:08;;;;;;;48.25;30.17;;;;;;;;;;4807842;29;20573;-70
2022/08/25 02:04:34;;;;;;;48.35;29.35;;;20.60;99.90;;;;;;4793058;29;20408;-70
2022/08/25 02:07:02;;;;;;;48.83;29.85;;;20.90;99.90;;;;;;4792697;29;20054;-70
2022/08/25 02:09:28;;;;;;;57.80;29.73;;;21.50;99.90;;;;;;4807517;29;20055;-70
2022/08/25 02:11:55;;;;;;;47.75;30.15;;;21.30;99.90;;;;;;4792865;29;20115;-70
2022/08/25 02:14:22;;;;;;;43.00;28.00;;;19.60;99.90;;;;;;4792844;29;20051;-69
2022/08/25 02:16:50;;;;;;;45.65;29.35;;;20.30;99.70;;;;;;4807642;29;20042;-70
2022/08/25 02:19:17;;;;;;;52.53;30.58;;;19.20;99.90;;;;;;4807471;29;20562;-69
2022/08/25 02:21:43;;;;;;;45.72;29.50;;;19.80;99.90;;;;;;4792430;29;20129;-69
2022/08/25 02:24:10;;;;;;;45.75;29.00;;;;;;;;;;4807395;29;20133;-70
2022/08/25 02:26:37;;;;;;;49.40;30.17;;;19.80;99.90;;;;;;4792711;29;20074;-69
2022/08/25 02:29:06;;;;;;;53.50;29.33;;;20.50;99.90;;;;;;4792327;29;20137;-69
2022/08/25 02:31:33;;;;;;;44.65;27.75;;;19.70;99.90;;;;;;4806074;29;20047;-70
2022/08/25 02:33:58;;;;;;;49.95;28.50;;;21.30;99.90;;;;;;4808481;29;20626;-69
2022/08/25 02:36:25;;;;;;;45.28;28.90;;;;;;;;;;4807452;29;20145;-69
2022/08/25 02:38:51;;;;;;;43.70;27.17;;;21.30;99.90;;;;;;4807349;29;20515;-69
2022/08/25 02:41:21;;;;;;;44.20;26.85;;;19.30;99.90;;;;;;4807212;29;20050;-70
2022/08/25 02:43:48;;;;;;;37.03;25.25;;;20.50;99.90;;;;;;4807164;29;20058;-70
2022/08/25 02:46:16;;;;;;;40.85;26.45;;;19.20;99.90;;;;;;4807087;29;20195;-69
2022/08/25 02:48:42;;;;;;;39.10;25.95;;;;;;;;;;4792484;29;20055;-70
2022/08/25 02:51:09;;;;;;;42.92;25.45;;;20.40;99.20;;;;;;4791995;29;20047;-69
2022/08/25 02:53:38;;;;;;;37.65;25.17;;;21.20;99.90;;;;;;4806933;29;20059;-70
2022/08/25 02:56:08;;;;;;;42.40;24.98;;;19.20;99.90;;;;;;4806966;29;20151;-69
2022/08/25 02:58:36;;;;;;;52.30;28.92;;;20.50;99.90;;;;;;4791648;29;20059;-70
2022/08/25 03:01:02;;;;;;;41.72;24.75;;;21.10;99.90;;;;;;4791774;29;20078;-69
2022/08/25 03:03:28;;;;;;;34.78;24.15;;;;;;;;;;4791877;29;20051;-70
2022/08/25 03:05:56;;;;;;;35.42;23.20;;;;;;;;;;4806931;29;20084;-70
2022/08/25 03:08:22;;;;;;;35.10;23.20;;;18.90;99.90;;;;;;4806691;29;20054;-70
2022/08/25 03:10:48;;;;;;;42.92;24.15;;;;;;;;;;4806622;29;20454;-70
2022/08/25 03:13:14;;;;;;;41.35;23.45;;;21.20;99.00;;;;;;4807034;29;20047;-71
2022/08/25 03:15:41;;;;;;;35.92;22.13;;;;;;;;;;4791991;29;20354;-70
2022/08/25 03:18:07;;;;;;;39.38;23.02;;;21.00;99.90;;;;;;4806752;29;20054;-70
2022/08/25 03:20:34;;;;;;;35.58;21.48;;;21.00;99.90;;;;;;4806517;29;20060;-70
2022/08/25 03:23:01;;;;;;;29.35;19.98;;;20.80;99.90;;;;;;4806756;29;20053;-69
2022/08/25 03:28:13;;;;;;;33.65;20.70;;;20.10;98.90;;;;;;4806283;29;20057;-69
2022/08/25 03:30:40;;;;;;;31.48;20.27;;;20.90;99.80;;;;;;4806313;29;20058;-69
2022/08/25 03:33:06;;;;;;;37.30;20.55;;;20.90;99.90;;;;;;4806321;29;20055;-69
2022/08/25 03:35:32;;;;;;;30.75;20.15;;;20.00;99.90;;;;;;4791567;29;20082;-70
2022/08/25 03:37:58;;;;;;;35.10;19.75;;;20.50;99.90;;;;;;4806228;29;20085;-70
2022/08/25 03:40:25;;;;;;;35.00;19.13;;;19.90;98.70;;;;;;4806251;29;20050;-70
2022/08/25 03:42:51;;;;;;;31.67;18.50;;;18.70;99.90;;;;;;4805638;29;20130;-69
2022/08/25 03:45:17;;;;;;;39.33;20.33;;;;;;;;;;4806072;29;20137;-69
2022/08/25 03:47:46;;;;;;;33.08;19.38;;;20.90;99.90;;;;;;4806074;29;20564;-69
2022/08/25 03:50:14;;;;;;;28.40;18.58;;;19.80;98.70;;;;;;4806148;29;20062;-69
2022/08/25 03:52:40;;;;;;;25.75;17.90;;;18.70;99.90;;;;;;4806187;29;20047;-70
2022/08/25 03:55:08;;;;;;;28.95;18.30;;;20.20;99.90;;;;;;4805919;29;20054;-69
2022/08/25 03:57:34;;;;;;;31.95;17.92;;;20.80;99.90;;;;;;4806317;29;20397;-69
2022/08/25 04:00:00;;;;;;;25.15;15.73;;;;;;;;;;4790713;29;20063;-69
2022/08/25 04:02:26;;;;;;;30.13;16.50;;;18.50;99.90;;;;;;4790884;29;20164;-69
2022/08/25 04:04:52;;;;;;;24.30;15.52;;;20.10;99.90;;;;;;4791001;29;20137;-69
2022/08/25 04:07:18;;;;;;;29.83;16.75;;;18.40;99.90;;;;;;4791131;29;20058;-69
2022/08/25 04:09:44;;;;;;;27.83;17.02;;;18.50;99.90;;;;;;4806072;29;20100;-70
2022/08/25 04:12:10;;;;;;;28.48;16.75;;;19.80;99.90;;;;;;4790800;29;20526;-69
2022/08/25 04:14:36;;;;;;;33.67;16.13;;;18.50;99.90;;;;;;4805532;29;20066;-69
2022/08/25 04:17:02;;;;;;;26.83;16.20;;;;;;;;;;4805855;29;20058;-69
2022/08/25 04:19:27;;;;;;;23.80;16.27;;;20.40;99.90;;;;;;4805697;29;20079;-69
2022/08/25 04:21:53;;;;;;;25.65;15.80;;;20.50;99.90;;;;;;4805745;29;20105;-69
2022/08/25 04:24:20;;;;;;;23.50;16.10;;;;;;;;;;4790276;29;20053;-70
2022/08/25 04:26:49;;;;;;;24.60;15.90;;;19.60;98.70;;;;;;4805295;29;20059;-69
2022/08/25 04:29:18;;;;;;;24.92;13.95;;;20.60;99.90;;;;;;4805145;29;20046;-69
2022/08/25 04:31:45;;;;;;;23.75;15.02;;;20.60;99.90;;;;;;4790270;29;20042;-69
2022/08/25 04:34:12;;;;;;;24.90;15.05;;;20.50;99.90;;;;;;4790209;29;20054;-69
2022/08/25 04:36:38;;;;;;;24.35;14.50;;;18.40;99.90;;;;;;4805128;29;20126;-69
2022/08/25 04:39:04;;;;;;;23.27;13.35;;;20.40;99.90;;;;;;4805157;29;20057;-69
2022/08/25 04:41:30;;;;;;;23.75;13.20;;;20.20;99.90;;;;;;4805496;29;20042;-69
2022/08/25 04:43:58;;;;;;;20.60;13.10;;;18.60;99.90;;;;;;4805082;29;20409;-69
2022/08/25 04:46:27;;;;;;;27.77;14.15;;;19.50;99.90;;;;;;4790287;29;20054;-70
2022/08/25 04:48:55;;;;;;;24.50;14.77;;;20.60;99.40;;;;;;4805238;29;20086;-69
2022/08/25 04:51:24;;;;;;;22.13;13.15;;;19.80;99.90;;;;;;4804906;29;20129;-69
2022/08/25 04:53:51;;;;;;;23.00;13.30;;;20.60;99.90;;;;;;4804242;29;20053;-69
2022/08/25 04:56:20;;;;;;;23.95;13.52;;;18.60;99.90;;;;;;4804661;29;20050;-69
2022/08/25 04:58:46;;;;;;;23.85;13.40;;;18.40;99.90;;;;;;4805061;29;20055;-70
2022/08/25 05:01:16;;;;;;;21.35;13.35;;;18.40;99.90;;;;;;4805129;29;20423;-70
2022/08/25 05:03:43;;;;;;;24.92;13.32;;;18.50;99.90;;;;;;4806381;29;20069;-69
2022/08/25 05:06:08;;;;;;;20.10;13.60;;;20.00;99.90;;;;;;4805018;29;20042;-69
2022/08/25 05:08:35;;;;;;;26.50;13.68;;;19.60;98.10;;;;;;4790261;29;20134;-69
2022/08/25 05:11:08;;;;;;;19.17;13.52;;;19.20;98.40;;;;;;4804854;29;20135;-69
2022/08/25 05:13:35;;;;;;;23.10;12.77;;;19.70;98.00;;;;;;4804763;29;20519;-69
2022/08/25 05:16:01;;;;;;;26.17;12.85;;;18.60;99.90;;;;;;4804687;29;20082;-70
2022/08/25 05:18:29;;;;;;;19.67;12.27;;;19.70;98.10;;;;;;4804704;29;20046;-69
2022/08/25 05:20:56;;;;;;;21.95;12.18;;;19.60;97.80;;;;;;4804878;29;20059;-69
2022/08/25 05:23:23;;;;;;;22.50;12.05;;;20.40;99.90;;;;;;4804644;29;20382;-69
2022/08/25 05:25:50;;;;;;;22.48;12.55;;;20.50;99.90;;;;;;4804822;29;20046;-69
2022/08/25 05:28:17;;;;;;;22.42;11.00;;;19.50;98.00;;;;;;4804537;29;20385;-70
2022/08/25 05:30:44;;;;;;;27.17;12.38;;;20.70;99.90;;;;;;4804534;29;20496;-69
2022/08/25 05:33:11;;;;;;;20.10;12.50;;;20.00;99.90;;;;;;4789826;29;20400;-69
2022/08/25 05:35:37;;;;;;;30.23;12.40;;;19.60;99.90;;;;;;4804615;29;20107;-69
2022/08/25 05:38:04;;;;;;;21.90;12.00;;;20.80;99.90;;;;;;4804891;29;20047;-69
2022/08/25 05:40:31;;;;;;;18.40;12.65;;;19.80;99.90;;;;;;4804834;29;20073;-69
2022/08/25 05:42:57;;;;;;;21.10;11.77;;;18.40;98.20;;;;;;4804549;29;20046;-69
2022/08/25 05:45:23;;;;;;;29.05;11.98;;;20.40;99.90;;;;;;4804522;29;20500;-69
2022/08/25 05:47:49;;;;;;;20.38;12.00;;;;;;;;;;4804745;29;20556;-69
2022/08/25 05:50:16;;;;;;;25.02;11.32;;;19.90;97.10;;;;;;4804417;29;20496;-69
2022/08/25 05:52:42;;;;;;;22.02;11.00;;;;;;;;;;4774533;29;20511;-69
2022/08/25 05:55:09;;;;;;;24.50;11.80;;;20.90;99.90;;;;;;4805548;29;20053;-69
2022/08/25 05:57:35;;;;;;;17.95;11.63;;;19.70;99.90;;;;;;4804542;29;20079;-69
2022/08/25 06:00:03;;;;;;;21.83;11.57;;;19.90;97.00;;;;;;4804292;29;20111;-69
2022/08/25 06:02:43;;;;;;;17.02;11.80;;;;;;;;;;4804832;29;20051;-69
2022/08/25 06:05:21;;;;;;;27.42;12.20;;;20.50;99.90;;;;;;4790015;29;20047;-74
2022/08/25 06:07:50;;;;;;;20.30;12.80;;;20.20;97.40;;;;;;4792845;29;20066;-74
2022/08/25 06:10:17;;;;;;;25.33;12.23;;;19.70;99.90;;;;;;4807752;29;20046;-74
2022/08/25 06:12:44;;;;;;;25.75;12.10;;;20.20;99.90;;;;;;4807879;29;20045;-74
2022/08/25 06:15:12;;;;;;;23.30;12.32;;;19.90;97.10;;;;;;4807767;29;20051;-74
2022/08/25 06:17:40;;;;;;;17.27;12.18;;;21.20;99.90;;;;;;4792978;29;20047;-74
2022/08/25 06:20:17;;;;;;;20.95;11.60;;;20.20;97.10;;;;;;4792966;29;20059;-74
2022/08/25 06:22:43;;;;;;;25.60;12.30;;;19.40;99.70;;;;;;4807818;29;20511;-74
2022/08/25 06:25:11;;;;;;;22.02;11.63;;;19.70;99.90;;;;;;4807502;29;20047;-74
2022/08/25 06:27:37;;;;;;;30.60;10.98;;;19.20;99.90;;;;;;4807494;29;20053;-74
2022/08/25 06:30:06;;;;;;;21.35;11.20;;;20.90;99.90;;;;;;4807385;29;20057;-74
2022/08/25 06:32:34;;;;;;;24.75;12.10;;;21.40;97.20;;;;;;4807380;29;20460;-74
2022/08/25 06:35:01;;;;;;;22.95;12.18;;;20.40;99.90;;;;;;4792344;29;20126;-74
2022/08/25 06:37:27;;;;;;;21.27;11.60;;;;;;;;;;4792718;29;20126;-74
2022/08/25 06:39:53;;;;;;;19.17;10.80;;;19.50;99.90;;;;;;4807700;29;20054;-74
2022/08/25 06:42:19;;;;;;;25.88;11.40;;;19.80;99.90;;;;;;4807270;29;20050;-74
2022/08/25 06:44:45;;;;;;;23.33;11.38;;;;;;;;;;4808253;29;20126;-74
2022/08/25 06:47:10;;;;;;;19.27;11.55;;;20.60;99.90;;;;;;4792454;29;20395;-74
2022/08/25 06:49:36;;;;;;;28.63;12.32;;;;;;;;;;4792130;29;20142;-74
2022/08/25 06:52:03;;;;;;;22.25;12.02;;;20.80;99.90;;;;;;4807241;29;20134;-74
2022/08/25 06:54:29;;;;;;;21.38;11.43;;;;;;;;;;4807390;29;20061;-74
2022/08/25 06:56:55;;;;;;;24.13;13.05;;;20.70;99.90;;;;;;4807171;29;20043;-74
2022/08/25 06:59:21;;;;;;;21.08;11.73;;;;;;;;;;4806798;29;20067;-74
2022/08/25 07:01:47;;;;;;;21.73;12.38;;;;;;;;;;4807276;29;20061;-73
2022/08/25 07:04:13;;;;;;;22.58;11.27;;;20.40;99.90;;;;;;4807094;29;20101;-74
2022/08/25 07:06:40;;;;;;;23.13;11.70;;;;;;;;;;4807107;29;20512;-74
2022/08/25 07:09:08;;;;;;;28.13;10.93;;;20.60;99.90;;;;;;4806784;29;20050;-74
2022/08/25 07:11:34;;;;;;;18.02;11.07;;;21.40;95.60;;;;;;4806741;29;20046;-74
2022/08/25 07:14:01;;;;;;;27.33;12.20;;;20.60;97.40;;;;;;4806929;29;20055;-74
2022/08/25 07:16:27;;;;;;;21.08;11.00;;;22.10;99.90;;;;;;4806433;29;20043;-74
2022/08/25 07:18:55;;;;;;;22.48;11.43;;;20.50;99.90;;;;;;4806520;29;20038;-74
2022/08/25 07:21:24;;;;;;;22.05;10.55;;;22.30;99.90;;;;;;4791941;29;20439;-74
2022/08/25 07:23:51;;;;;;;25.52;11.60;;;22.00;99.90;;;;;;4806971;29;20073;-74
2022/08/25 07:26:22;;;;;;;28.05;10.30;;;22.30;99.90;;;;;;4806518;29;20088;-74
2022/08/25 07:28:49;;;;;;;19.30;10.65;;;;;;;;;;4806479;29;20043;-74
2022/08/25 07:31:15;;;;;;;18.38;10.68;;;20.90;99.60;;;;;;4791650;29;20050;-74
2022/08/25 07:35:14;;;;;;;16.45;10.50;;;22.60;99.90;;;;;;4791424;29;20480;-74
2022/08/25 07:36:26;;;;;;;18.58;10.30;;;20.90;99.40;;;;;;4806562;29;20507;-74
2022/08/25 07:38:52;;;;;;;22.63;10.23;;;21.60;96.40;;;;;;4806305;29;20047;-74
2022/08/25 07:41:18;;;;;;;21.35;10.32;;;22.70;99.60;;;;;;4791350;29;20046;-74
2022/08/25 07:43:44;;;;;;;16.50;10.10;;;;;;;;;;4807505;29;20057;-74
2022/08/25 07:46:10;;;;;;;27.60;10.32;;;22.20;94.10;;;;;;4806192;29;20046;-74
2022/08/25 07:48:36;;;;;;;19.30;10.77;;;;;;;;;;4791156;29;20043;-74
2022/08/25 07:51:07;;;;;;;18.08;8.73;;;22.60;94.40;;;;;;4806045;29;20043;-74
2022/08/25 07:53:33;;;;;;;14.00;9.88;;;;;;;;;;4806186;29;20043;-74
2022/08/25 07:55:59;;;;;;;15.73;9.18;;;23.00;98.80;;;;;;4806061;29;20042;-74
2022/08/25 07:58:25;;;;;;;18.00;9.00;;;22.70;98.40;;;;;;4790877;29;20564;-74
2022/08/25 08:00:52;;;;;;;14.35;8.60;;;23.40;98.40;;;;;;4806165;29;20055;-74
2022/08/25 08:03:19;;;;;;;17.48;9.48;;;23.50;98.30;;;;;;4806165;29;20055;-74
2022/08/25 08:05:45;;;;;;;23.42;10.00;;;22.40;97.90;;;;;;4805871;29;20453;-74
2022/08/25 08:08:11;;;;;;;20.20;8.95;;;22.80;97.90;;;;;;4805926;29;20046;-74
2022/08/25 08:10:41;;;;;;;21.58;10.15;;;23.40;97.80;;;;;;4790746;29;20049;-74
2022/08/25 08:13:08;;;;;;;29.67;9.20;;;23.80;97.80;;;;;;4805848;29;20484;-74
2022/08/25 08:15:35;;;;;;;15.48;8.30;;;23.40;97.50;;;;;;4790751;29;20054;-74
2022/08/25 08:18:02;;;;;;;18.35;8.27;;;24.00;97.60;;;;;;4805663;29;20058;-74
2022/08/25 08:20:30;;;;;;;14.60;7.80;;;24.00;94.40;;;;;;4805945;29;20535;-74
2022/08/25 08:22:56;;;;;;;19.40;8.60;;;;;;;;;;4805672;29;20062;-74
2022/08/25 08:25:22;;;;;;;18.20;7.78;;;24.20;97.00;;;;;;4805700;29;20047;-74
2022/08/25 08:27:49;;;;;;;17.70;7.90;;;23.20;96.60;;;;;;4805574;29;20125;-74
2022/08/25 08:30:15;;;;;;;14.27;7.35;;;24.30;96.70;;;;;;4775544;29;20054;-74
2022/08/25 08:32:41;;;;;;;18.92;7.30;;;23.80;96.30;;;;;;4805664;29;20051;-75
2022/08/25 08:35:07;;;;;;;17.08;8.20;;;24.00;90.90;;;;;;4805368;29;20408;-74
2022/08/25 08:37:33;;;;;;;16.60;7.80;;;24.50;95.90;;;;;;4805320;29;20096;-74
2022/08/25 08:40:00;;;;;;;15.77;7.28;;;24.70;95.50;;;;;;4790305;29;20051;-74
2022/08/25 08:42:41;;;;;;;13.82;6.85;;;24.00;88.90;;;;;;4805593;29;20059;-74
2022/08/25 08:45:32;;;;;;;14.32;7.63;;;24.70;95.20;;;;;;4790588;29;20133;-74
2022/08/25 08:48:26;;;;;;;17.48;7.03;;;23.60;94.70;;;;;;4806814;29;20578;-74
2022/08/25 08:51:15;;;;;;;15.20;7.88;;;23.80;94.30;;;;;;4807104;29;20082;-74
2022/08/25 08:54:05;;;;;;;20.85;7.85;;;25.10;94.60;;;;;;4792866;29;20388;-74
2022/08/25 08:56:37;;;;;;;16.70;7.38;;;25.00;92.70;;;;;;4806443;29;20055;-74
2022/08/25 08:59:08;;;;;;;15.75;6.78;;;24.70;89.30;;;;;;4805625;29;20062;-74
2022/08/25 09:01:46;;;;;;;16.80;6.75;;;24.30;94.00;;;;;;4805827;29;20058;-75
2022/08/25 09:04:21;;;;;;;22.70;6.88;;;25.00;93.90;;;;;;4805512;29;20042;-75
2022/08/25 09:06:49;;;;;;;12.35;7.15;;;25.10;93.70;;;;;;4805364;29;20050;-74
2022/08/25 09:09:31;;;;;;;14.38;7.22;;;24.50;93.50;;;;;;4806482;29;20043;-74
2022/08/25 09:12:08;;;;;;;10.52;6.65;;;25.80;93.70;;;;;;4805278;29;20169;-74
2022/08/25 09:15:01;;;;;;;14.00;6.55;;;25.10;93.10;;;;;;4790175;29;20061;-75
2022/08/25 09:17:56;;;;;;;14.50;7.25;;;25.40;92.40;;;;;;4804875;29;20129;-75
2022/08/25 09:20:37;;;;;;;17.02;6.90;;;25.00;92.60;;;;;;4785144;29;20571;-75
2022/08/25 09:23:43;;;;;;;19.37;6.40;;;25.40;84.40;;;;;;4804735;29;20358;-75
2022/08/25 09:26:29;;;;;;;10.32;6.07;;;25.50;84.30;;;;;;4804738;29;20050;-75
2022/08/25 09:29:09;;;;;;;16.77;6.53;;;25.90;92.00;;;;;;4804804;29;20046;-75
2022/08/25 09:31:39;;;;;;;16.40;6.18;;;24.60;80.30;;;;;;4804803;29;20516;-75
2022/08/25 09:34:12;;;;;;;16.17;6.13;;;26.20;83.30;;;;;;4804817;29;20039;-75
2022/08/25 09:36:38;;;;;;;16.27;6.20;;;;;;;;;;4804885;29;20035;-75
2022/08/25 09:39:06;;;;;;;20.33;7.03;;;26.00;90.80;;;;;;4789987;29;20129;-75
2022/08/25 09:41:44;;;;;;;16.90;5.70;;;26.60;90.80;;;;;;4792576;29;20192;-75
2022/08/25 09:44:45;;;;;;;19.35;7.00;;;26.40;90.40;;;;;;4808560;29;20078;-75
2022/08/25 09:47:16;;;;;;;14.27;5.50;;;27.20;90.30;;;;;;4807936;29;20058;-75
2022/08/25 09:49:48;;;;;;;12.02;5.47;;;27.10;90.10;;;;;;4808059;29;20047;-75
2022/08/25 09:52:33;;;;;;;15.05;5.30;;;27.20;89.30;;;;;;4808153;29;20051;-75
2022/08/25 09:55:12;;;;;;;13.73;5.75;;;27.40;88.90;;;;;;4808037;29;20481;-75
2022/08/25 09:57:53;;;;;;;11.48;4.95;;;27.30;87.20;;;;;;4807989;29;20047;-75
2022/08/25 10:00:32;;;;;;;12.13;5.15;;;27.30;86.30;;;;;;4792857;29;20082;-75
2022/08/25 10:03:12;;;;;;;13.48;5.40;;;27.40;86.00;;;;;;4792858;29;20106;-75
2022/08/25 10:05:57;;;;;;;19.85;5.80;;;26.90;79.00;;;;;;4792960;29;20055;-75
2022/08/25 10:08:38;;;;;;;20.30;5.57;;;27.90;85.90;;;;;;4807854;29;20042;-76
2022/08/25 10:11:12;;;;;;;11.60;5.07;;;27.90;84.80;;;;;;4807821;29;20059;-75
2022/08/25 10:13:47;;;;;;;12.25;5.20;;;28.10;84.20;;;;;;4807770;29;20130;-75
2022/08/25 10:16:25;;;;;;;12.40;4.78;;;28.20;84.10;;;;;;4808020;29;20050;-75
2022/08/25 10:19:11;;;;;;;19.42;5.00;;;28.10;83.20;;;;;;4792706;29;20050;-75
2022/08/25 10:21:41;;;;;;;9.18;4.68;;;28.00;72.80;;;;;;4807632;29;20050;-76
2022/08/25 10:24:10;;;;;;;15.10;4.90;;;27.70;82.50;;;;;;4807848;29;20054;-75
2022/08/25 10:26:47;;;;;;;16.25;4.50;;;28.50;69.50;;;;;;4807503;29;20125;-75
2022/08/25 10:29:34;;;;;;;8.95;4.40;;;28.50;79.60;;;;;;4807501;29;20043;-75
2022/08/25 10:32:12;;;;;;;11.55;4.28;;;28.60;81.20;;;;;;4792399;29;20442;-75
2022/08/25 10:34:38;;;;;;;7.07;4.07;;;;;;;;;;4807400;29;20130;-75
2022/08/25 10:37:09;;;;;;;13.70;4.20;;;28.70;79.80;;;;;;4792628;29;20043;-75
2022/08/25 10:40:04;;;;;;;8.18;4.10;;;28.60;66.80;;;;;;4807291;29;20053;-75
2022/08/25 10:42:33;;;;;;;11.15;4.13;;;28.90;80.00;;;;;;4797567;29;20059;-75
2022/08/25 10:45:41;;;;;;;11.32;4.60;;;28.80;67.10;;;;;;4807310;29;20057;-75
2022/08/25 10:48:28;;;;;;;9.05;4.25;;;28.90;79.30;;;;;;4808417;29;20507;-75
2022/08/25 10:51:06;;;;;;;8.77;4.30;;;28.70;71.80;;;;;;4807133;29;20049;-76
2022/08/25 10:53:34;;;;;;;9.32;4.60;;;29.00;78.90;;;;;;4791400;29;20043;-76
2022/08/25 10:56:41;;;;;;;11.80;4.70;;;29.20;78.40;;;;;;4807102;29;20137;-75
2022/08/25 10:59:21;;;;;;;22.25;4.93;;;28.80;78.20;;;;;;4755280;30;20067;-75
2022/08/25 11:01:59;;;;;;;14.65;4.40;;;29.40;77.80;;;;;;4801041;29;20062;-75
2022/08/25 11:04:37;;;;;;;9.82;5.45;;;29.10;65.90;;;;;;4792189;29;20396;-76
2022/08/25 11:07:25;;;;;;;10.63;4.93;;;29.50;78.30;;;;;;4806793;29;20082;-73
2022/08/25 11:09:56;;;;;;;11.68;4.68;;;29.60;72.90;;;;;;4807773;29;20047;-73
2022/08/25 11:12:43;;;;;;;11.25;4.90;;;29.40;74.80;;;;;;4806820;29;20047;-74
2022/08/25 11:15:17;;;;;;;12.13;4.80;;;29.80;77.50;;;;;;4806792;29;20523;-73
2022/08/25 11:17:56;;;;;;;7.75;4.63;;;29.70;77.30;;;;;;4806616;29;20055;-74
2022/08/25 11:20:52;;;;;;;11.40;4.40;;;29.80;77.00;;;;;;4806682;29;20569;-74
2022/08/25 11:23:33;;;;;;;10.48;4.20;;;29.70;76.20;;;;;;4805829;29;20067;-74
2022/08/25 11:26:06;;;;;;;18.93;4.60;;;30.00;76.40;;;;;;4791381;29;20484;-74
2022/08/25 11:28:42;;;;;;;15.75;4.25;;;28.20;64.70;;;;;;4806716;29;20284;-74
2022/08/25 11:31:08;;;;;;;15.15;4.72;;;29.80;75.70;;;;;;4791434;29;20115;-74
2022/08/25 11:33:35;;;;;;;17.85;4.70;;;30.00;75.20;;;;;;4806405;29;20057;-74
2022/08/25 11:36:19;;;;;;;9.55;4.63;;;30.00;74.70;;;;;;4806600;29;20043;-73
2022/08/25 11:38:59;;;;;;;8.55;5.15;;;30.10;75.20;;;;;;4806578;29;20073;-74
2022/08/25 11:42:00;;;;;;;15.95;5.63;;;30.20;63.20;;;;;;4806314;29;20515;-73
2022/08/25 11:44:50;;;;;;;11.07;5.00;;;29.70;75.20;;;;;;4796887;29;20054;-74
2022/08/25 11:47:34;;;;;;;11.90;5.05;;;30.30;75.00;;;;;;4798317;29;20504;-73
2022/08/25 11:50:23;;;;;;;10.98;5.22;;;30.50;75.50;;;;;;4791131;29;20580;-74
2022/08/25 11:52:59;;;;;;;10.57;5.13;;;30.50;71.60;;;;;;4806147;29;20051;-74
2022/08/25 11:55:51;;;;;;;13.38;5.50;;;30.30;75.60;;;;;;4805953;29;20054;-73
2022/08/25 11:58:37;;;;;;;14.38;5.13;;;30.50;75.10;;;;;;4806085;29;20042;-74
2022/08/25 12:01:06;;;;;;;12.52;5.43;;;30.20;75.40;;;;;;4806043;29;20062;-74
2022/08/25 12:03:35;;;;;;;10.68;5.35;;;30.60;75.20;;;;;;4805842;29;20042;-74
2022/08/25 12:06:19;;;;;;;13.27;5.47;;;30.60;75.20;;;;;;4805839;29;20058;-73
2022/08/25 12:08:51;;;;;;;18.77;5.70;;;30.70;75.10;;;;;;4805954;29;20054;-77
2022/08/25 12:11:43;;;;;;;10.65;5.07;;;30.80;75.10;;;;;;4805793;29;20499;-74
2022/08/25 12:14:15;;;;;;;9.60;4.97;;;30.80;75.20;;;;;;4806066;29;20043;-73
2022/08/25 12:17:01;;;;;;;11.13;4.85;;;30.60;74.80;;;;;;4790860;29;20126;-70
2022/08/25 12:19:48;;;;;;;16.55;4.63;;;30.80;62.10;;;;;;4805688;29;20501;-70
2022/08/25 12:22:15;;;;;;;13.88;4.13;;;;;;;;;;4790735;29;20042;-70
2022/08/25 12:24:43;;;;;;;9.65;4.50;;;31.10;63.00;;;;;;4805516;29;20540;-70
2022/08/25 12:27:40;;;;;;;10.43;4.63;;;30.80;72.70;;;;;;4790438;29;20053;-70
2022/08/25 12:30:20;;;;;;;11.15;4.63;;;31.00;66.20;;;;;;4805694;29;20054;-70
2022/08/25 12:33:08;;;;;;;12.25;4.38;;;31.20;60.30;;;;;;4805462;29;20093;-70
2022/08/25 12:35:54;;;;;;;7.07;4.28;;;31.40;66.30;;;;;;4805356;29;20038;-70
2022/08/25 12:38:39;;;;;;;9.70;4.53;;;31.20;71.60;;;;;;4790302;29;20042;-70
2022/08/25 12:41:15;;;;;;;8.63;4.13;;;31.70;71.70;;;;;;4805573;29;20448;-70
2022/08/25 12:44:16;;;;;;;10.32;4.13;;;31.70;71.40;;;;;;4805684;29;20146;-70
2022/08/25 12:46:43;;;;;;;16.73;4.47;;;31.40;60.60;;;;;;4802740;29;20070;-70
2022/08/25 12:49:41;;;;;;;11.00;4.25;;;31.20;69.30;;;;;;4805165;29;20054;-71
2022/08/25 12:52:14;;;;;;;12.32;4.45;;;31.70;70.00;;;;;;4794007;29;20116;-75
2022/08/25 12:54:57;;;;;;;7.85;3.83;;;31.30;63.60;;;;;;4805428;29;20626;-74
2022/08/25 12:57:49;;;;;;;14.20;4.25;;;31.80;69.30;;;;;;4806344;29;20502;-75
2022/08/25 13:00:28;;;;;;;6.93;4.15;;;31.90;69.60;;;;;;4804973;29;20138;-74
2022/08/25 13:03:19;;;;;;;8.18;4.65;;;31.90;69.60;;;;;;4805230;29;20069;-74
2022/08/25 13:06:04;;;;;;;11.02;4.32;;;31.40;68.70;;;;;;4805053;29;20050;-75
2022/08/25 13:08:59;;;;;;;7.97;4.05;;;31.70;68.90;;;;;;4805089;29;20050;-75